sensor_id;sensor_type;location;lat;lon;timestamp;temperature;humidity
11035;DHT22;5571;48.110;-1.706;2023-04-03T00:01:15;8.00;99.90
11035;DHT22;5571;48.110;-1.706;2023-04-03T00:03:41;8.00;99.90
11035;DHT22;5571;48.110;-1.706;2023-04-03T00:06:09;8.00;99.90
11035;DHT22;5571;48.110;-1.706;2023-04-03T00:08:36;8.00;99.90
11035;DHT22;5571;48.110;-1.706;2023-04-03T00:11:02;8.00;99.90
11035;DHT22;5571;48.110;-1.706;2023-04-03T00:13:28;8.00;99.90
11035;DHT22;5571;48.110;-1.706;2023-04-03T00:15:54;7.90;99.90
11035;DHT22;5571;48.110;-1.706;2023-04-03T00:18:20;7.90;99.90
11035;DHT22;5571;48.110;-1.706;2023-04-03T00:20:46;7.90;99.90
11035;DHT22;5571;48.110;-1.706;2023-04-03T00:23:11;7.90;99.90
11035;DHT22;5571;48.110;-1.706;2023-04-03T00:25:37;7.80;99.90
11035;DHT22;5571;48.110;-1.706;2023-04-03T00:28:03;7.80;99.90
11035;DHT22;5571;48.110;-1.706;2023-04-03T00:30:29;7.70;99.90
11035;DHT22;5571;48.110;-1.706;2023-04-03T00:32:55;7.80;99.90
11035;DHT22;5571;48.110;-1.706;2023-04-03T00:35:21;7.70;99.90
11035;DHT22;5571;48.110;-1.706;2023-04-03T00:37:50;7.70;99.90
11035;DHT22;5571;48.110;-1.706;2023-04-03T00:40:16;7.70;99.90
11035;DHT22;5571;48.110;-1.706;2023-04-03T00:42:43;7.60;99.90
11035;DHT22;5571;48.110;-1.706;2023-04-03T00:47:44;7.60;99.90
11035;DHT22;5571;48.110;-1.706;2023-04-03T00:50:10;7.60;99.90
11035;DHT22;5571;48.110;-1.706;2023-04-03T00:52:37;7.60;99.90
11035;DHT22;5571;48.110;-1.706;2023-04-03T00:55:06;7.60;99.90
11035;DHT22;5571;48.110;-1.706;2023-04-03T00:57:33;7.50;99.90
11035;DHT22;5571;48.110;-1.706;2023-04-03T01:00:06;7.50;99.90
11035;DHT22;5571;48.110;-1.706;2023-04-03T01:02:32;7.50;99.90
11035;DHT22;5571;48.110;-1.706;2023-04-03T01:04:58;7.40;99.90
11035;DHT22;5571;48.110;-1.706;2023-04-03T01:07:27;7.40;99.90
11035;DHT22;5571;48.110;-1.706;2023-04-03T01:09:57;7.40;99.90
11035;DHT22;5571;48.110;-1.706;2023-04-03T01:12:30;7.40;99.90
11035;DHT22;5571;48.110;-1.706;2023-04-03T01:14:58;7.40;99.90
11035;DHT22;5571;48.110;-1.706;2023-04-03T01:17:33;7.40;99.90
11035;DHT22;5571;48.110;-1.706;2023-04-03T01:20:21;7.40;99.90
11035;DHT22;5571;48.110;-1.706;2023-04-03T01:23:12;7.30;99.90
11035;DHT22;5571;48.110;-1.706;2023-04-03T01:25:49;7.30;99.90
11035;DHT22;5571;48.110;-1.706;2023-04-03T01:28:27;7.40;99.90
11035;DHT22;5571;48.110;-1.706;2023-04-03T01:33:35;7.30;99.90
11035;DHT22;5571;48.110;-1.706;2023-04-03T01:36:03;7.30;99.90
11035;DHT22;5571;48.110;-1.706;2023-04-03T01:38:29;7.30;99.90
11035;DHT22;5571;48.110;-1.706;2023-04-03T01:40:54;7.30;99.90
11035;DHT22;5571;48.110;-1.706;2023-04-03T01:43:20;7.30;99.90
11035;DHT22;5571;48.110;-1.706;2023-04-03T01:45:46;7.30;99.90
11035;DHT22;5571;48.110;-1.706;2023-04-03T01:48:12;7.30;99.90
11035;DHT22;5571;48.110;-1.706;2023-04-03T01:50:38;7.20;99.90
11035;DHT22;5571;48.110;-1.706;2023-04-03T01:53:04;7.20;99.90
11035;DHT22;5571;48.110;-1.706;2023-04-03T01:55:30;7.20;99.90
11035;DHT22;5571;48.110;-1.706;2023-04-03T01:57:55;7.20;99.90
11035;DHT22;5571;48.110;-1.706;2023-04-03T02:00:21;7.20;99.90
11035;DHT22;5571;48.110;-1.706;2023-04-03T02:02:47;7.10;99.90
11035;DHT22;5571;48.110;-1.706;2023-04-03T02:05:12;7.20;99.90
11035;DHT22;5571;48.110;-1.706;2023-04-03T02:07:38;7.20;99.90
11035;DHT22;5571;48.110;-1.706;2023-04-03T02:10:04;7.20;99.90
11035;DHT22;5571;48.110;-1.706;2023-04-03T02:12:30;7.20;99.90
11035;DHT22;5571;48.110;-1.706;2023-04-03T02:14:55;7.10;99.90
11035;DHT22;5571;48.110;-1.706;2023-04-03T02:17:21;7.10;99.90
11035;DHT22;5571;48.110;-1.706;2023-04-03T02:19:47;7.10;99.90
11035;DHT22;5571;48.110;-1.706;2023-04-03T02:22:12;7.10;99.90
11035;DHT22;5571;48.110;-1.706;2023-04-03T02:24:38;7.10;99.90
11035;DHT22;5571;48.110;-1.706;2023-04-03T02:27:05;7.10;99.90
11035;DHT22;5571;48.110;-1.706;2023-04-03T02:29:31;7.00;99.90
11035;DHT22;5571;48.110;-1.706;2023-04-03T02:31:56;7.10;99.90
11035;DHT22;5571;48.110;-1.706;2023-04-03T02:34:22;7.00;99.90
11035;DHT22;5571;48.110;-1.706;2023-04-03T02:36:48;7.00;99.90
11035;DHT22;5571;48.110;-1.706;2023-04-03T02:39:13;7.00;99.90
11035;DHT22;5571;48.110;-1.706;2023-04-03T02:41:39;6.90;99.90
11035;DHT22;5571;48.110;-1.706;2023-04-03T02:44:09;6.90;99.90
11035;DHT22;5571;48.110;-1.706;2023-04-03T02:46:35;6.90;99.90
11035;DHT22;5571;48.110;-1.706;2023-04-03T02:49:01;6.90;99.90
11035;DHT22;5571;48.110;-1.706;2023-04-03T02:51:27;6.90;99.90
11035;DHT22;5571;48.110;-1.706;2023-04-03T02:53:52;6.90;99.90
11035;DHT22;5571;48.110;-1.706;2023-04-03T02:56:18;6.90;99.90
11035;DHT22;5571;48.110;-1.706;2023-04-03T02:58:44;6.90;99.90
11035;DHT22;5571;48.110;-1.706;2023-04-03T03:01:11;6.90;99.90
11035;DHT22;5571;48.110;-1.706;2023-04-03T03:03:37;7.00;99.90
11035;DHT22;5571;48.110;-1.706;2023-04-03T03:06:08;6.90;99.90
11035;DHT22;5571;48.110;-1.706;2023-04-03T03:08:34;6.90;99.90
11035;DHT22;5571;48.110;-1.706;2023-04-03T03:11:00;6.90;99.90
11035;DHT22;5571;48.110;-1.706;2023-04-03T03:13:26;6.80;99.90
11035;DHT22;5571;48.110;-1.706;2023-04-03T03:15:52;6.80;99.90
11035;DHT22;5571;48.110;-1.706;2023-04-03T03:18:18;6.90;99.90
11035;DHT22;5571;48.110;-1.706;2023-04-03T03:20:44;6.80;99.90
11035;DHT22;5571;48.110;-1.706;2023-04-03T03:23:09;6.90;99.90
11035;DHT22;5571;48.110;-1.706;2023-04-03T03:25:39;6.90;99.90
11035;DHT22;5571;48.110;-1.706;2023-04-03T03:28:06;6.90;99.90
11035;DHT22;5571;48.110;-1.706;2023-04-03T03:30:32;6.80;99.90
11035;DHT22;5571;48.110;-1.706;2023-04-03T03:32:58;6.90;99.90
11035;DHT22;5571;48.110;-1.706;2023-04-03T03:35:23;6.80;99.90
11035;DHT22;5571;48.110;-1.706;2023-04-03T03:37:49;6.80;99.90
11035;DHT22;5571;48.110;-1.706;2023-04-03T03:40:15;6.80;99.90
11035;DHT22;5571;48.110;-1.706;2023-04-03T03:42:40;6.70;99.90
11035;DHT22;5571;48.110;-1.706;2023-04-03T03:45:07;6.60;99.90
11035;DHT22;5571;48.110;-1.706;2023-04-03T03:47:33;6.60;99.90
11035;DHT22;5571;48.110;-1.706;2023-04-03T03:49:58;6.60;99.90
11035;DHT22;5571;48.110;-1.706;2023-04-03T03:52:24;6.50;99.90
11035;DHT22;5571;48.110;-1.706;2023-04-03T03:54:50;6.50;99.90
11035;DHT22;5571;48.110;-1.706;2023-04-03T03:57:15;6.50;99.90
11035;DHT22;5571;48.110;-1.706;2023-04-03T03:59:41;6.50;99.90
11035;DHT22;5571;48.110;-1.706;2023-04-03T04:02:08;6.50;99.90
11035;DHT22;5571;48.110;-1.706;2023-04-03T04:04:33;6.50;99.90
11035;DHT22;5571;48.110;-1.706;2023-04-03T04:06:59;6.50;99.90
11035;DHT22;5571;48.110;-1.706;2023-04-03T04:09:26;6.40;99.90
11035;DHT22;5571;48.110;-1.706;2023-04-03T04:11:52;6.40;99.90
11035;DHT22;5571;48.110;-1.706;2023-04-03T04:14:17;6.40;99.90
11035;DHT22;5571;48.110;-1.706;2023-04-03T04:16:46;6.30;99.90
11035;DHT22;5571;48.110;-1.706;2023-04-03T04:19:12;6.30;99.90
11035;DHT22;5571;48.110;-1.706;2023-04-03T04:21:37;6.30;99.90
11035;DHT22;5571;48.110;-1.706;2023-04-03T04:24:03;6.20;99.90
11035;DHT22;5571;48.110;-1.706;2023-04-03T04:26:29;6.20;99.90
11035;DHT22;5571;48.110;-1.706;2023-04-03T04:28:55;6.20;99.90
11035;DHT22;5571;48.110;-1.706;2023-04-03T04:31:20;6.20;99.90
11035;DHT22;5571;48.110;-1.706;2023-04-03T04:33:46;6.20;99.90
11035;DHT22;5571;48.110;-1.706;2023-04-03T04:36:12;6.10;99.90
11035;DHT22;5571;48.110;-1.706;2023-04-03T04:38:37;6.10;99.90
11035;DHT22;5571;48.110;-1.706;2023-04-03T04:41:04;6.10;99.90
11035;DHT22;5571;48.110;-1.706;2023-04-03T04:43:29;6.10;99.90
11035;DHT22;5571;48.110;-1.706;2023-04-03T04:46:07;6.20;99.90
11035;DHT22;5571;48.110;-1.706;2023-04-03T04:48:33;6.10;99.90
11035;DHT22;5571;48.110;-1.706;2023-04-03T04:50:59;6.10;99.90
11035;DHT22;5571;48.110;-1.706;2023-04-03T04:53:25;6.00;99.90
11035;DHT22;5571;48.110;-1.706;2023-04-03T04:55:51;6.00;99.90
11035;DHT22;5571;48.110;-1.706;2023-04-03T04:58:17;6.00;99.90
11035;DHT22;5571;48.110;-1.706;2023-04-03T05:00:43;6.00;99.90
11035;DHT22;5571;48.110;-1.706;2023-04-03T05:03:09;6.00;99.90
11035;DHT22;5571;48.110;-1.706;2023-04-03T05:05:35;6.00;99.90
11035;DHT22;5571;48.110;-1.706;2023-04-03T05:08:01;6.00;99.90
11035;DHT22;5571;48.110;-1.706;2023-04-03T05:10:27;5.90;99.90
11035;DHT22;5571;48.110;-1.706;2023-04-03T05:12:53;5.90;99.90
11035;DHT22;5571;48.110;-1.706;2023-04-03T05:15:18;6.00;99.90
11035;DHT22;5571;48.110;-1.706;2023-04-03T05:17:44;6.00;99.90
11035;DHT22;5571;48.110;-1.706;2023-04-03T05:20:10;5.90;99.90
11035;DHT22;5571;48.110;-1.706;2023-04-03T05:22:36;5.90;99.90
11035;DHT22;5571;48.110;-1.706;2023-04-03T05:25:03;5.90;99.90
11035;DHT22;5571;48.110;-1.706;2023-04-03T05:27:28;6.00;99.90
11035;DHT22;5571;48.110;-1.706;2023-04-03T05:29:55;5.90;99.90
11035;DHT22;5571;48.110;-1.706;2023-04-03T05:32:21;5.90;99.90
11035;DHT22;5571;48.110;-1.706;2023-04-03T05:34:47;6.00;99.90
11035;DHT22;5571;48.110;-1.706;2023-04-03T05:37:13;5.90;99.90
11035;DHT22;5571;48.110;-1.706;2023-04-03T05:39:38;5.90;99.90
11035;DHT22;5571;48.110;-1.706;2023-04-03T05:42:06;5.90;99.90
11035;DHT22;5571;48.110;-1.706;2023-04-03T05:44:32;5.90;99.90
11035;DHT22;5571;48.110;-1.706;2023-04-03T05:46:58;5.80;99.90
11035;DHT22;5571;48.110;-1.706;2023-04-03T05:49:24;5.80;99.90
11035;DHT22;5571;48.110;-1.706;2023-04-03T05:51:50;5.80;99.90
11035;DHT22;5571;48.110;-1.706;2023-04-03T05:54:34;5.80;99.90
11035;DHT22;5571;48.110;-1.706;2023-04-03T05:57:00;5.90;99.90
11035;DHT22;5571;48.110;-1.706;2023-04-03T05:59:25;6.00;99.90
11035;DHT22;5571;48.110;-1.706;2023-04-03T06:01:51;6.10;99.90
11035;DHT22;5571;48.110;-1.706;2023-04-03T06:04:17;6.10;99.90
11035;DHT22;5571;48.110;-1.706;2023-04-03T06:06:48;6.20;99.90
11035;DHT22;5571;48.110;-1.706;2023-04-03T06:09:15;6.20;99.90
11035;DHT22;5571;48.110;-1.706;2023-04-03T06:11:41;6.20;99.90
11035;DHT22;5571;48.110;-1.706;2023-04-03T06:14:07;6.30;99.90
11035;DHT22;5571;48.110;-1.706;2023-04-03T06:16:33;6.40;99.90
11035;DHT22;5571;48.110;-1.706;2023-04-03T06:18:59;6.40;99.90
11035;DHT22;5571;48.110;-1.706;2023-04-03T06:21:25;6.40;99.90
11035;DHT22;5571;48.110;-1.706;2023-04-03T06:23:50;6.40;99.90
11035;DHT22;5571;48.110;-1.706;2023-04-03T06:26:17;6.30;99.90
11035;DHT22;5571;48.110;-1.706;2023-04-03T06:28:43;6.30;99.90
11035;DHT22;5571;48.110;-1.706;2023-04-03T06:31:08;6.30;99.90
11035;DHT22;5571;48.110;-1.706;2023-04-03T06:33:34;6.20;99.90
11035;DHT22;5571;48.110;-1.706;2023-04-03T06:36:03;6.20;99.90
11035;DHT22;5571;48.110;-1.706;2023-04-03T06:38:29;6.30;99.90
11035;DHT22;5571;48.110;-1.706;2023-04-03T06:40:55;6.30;99.90
11035;DHT22;5571;48.110;-1.706;2023-04-03T06:43:21;6.30;99.90
11035;DHT22;5571;48.110;-1.706;2023-04-03T06:45:47;6.30;99.90
11035;DHT22;5571;48.110;-1.706;2023-04-03T06:48:13;6.30;99.90
11035;DHT22;5571;48.110;-1.706;2023-04-03T06:50:39;6.30;99.90
11035;DHT22;5571;48.110;-1.706;2023-04-03T06:53:04;6.30;99.90
11035;DHT22;5571;48.110;-1.706;2023-04-03T06:55:31;6.40;99.90
11035;DHT22;5571;48.110;-1.706;2023-04-03T06:57:57;6.40;99.90
11035;DHT22;5571;48.110;-1.706;2023-04-03T07:00:22;6.40;99.90
11035;DHT22;5571;48.110;-1.706;2023-04-03T07:02:48;6.40;99.90
11035;DHT22;5571;48.110;-1.706;2023-04-03T07:05:14;6.30;99.90
11035;DHT22;5571;48.110;-1.706;2023-04-03T07:07:39;6.30;99.90
11035;DHT22;5571;48.110;-1.706;2023-04-03T07:10:07;6.40;99.90
11035;DHT22;5571;48.110;-1.706;2023-04-03T07:12:33;6.40;99.90
11035;DHT22;5571;48.110;-1.706;2023-04-03T07:14:59;6.40;99.90
11035;DHT22;5571;48.110;-1.706;2023-04-03T07:17:25;6.40;99.90
11035;DHT22;5571;48.110;-1.706;2023-04-03T07:19:51;6.50;99.90
11035;DHT22;5571;48.110;-1.706;2023-04-03T07:22:17;6.50;99.90
11035;DHT22;5571;48.110;-1.706;2023-04-03T07:24:43;6.50;99.90
11035;DHT22;5571;48.110;-1.706;2023-04-03T07:27:09;6.50;99.90
11035;DHT22;5571;48.110;-1.706;2023-04-03T07:29:35;6.50;99.90
11035;DHT22;5571;48.110;-1.706;2023-04-03T07:32:01;6.50;99.90
11035;DHT22;5571;48.110;-1.706;2023-04-03T07:34:27;6.50;99.90
11035;DHT22;5571;48.110;-1.706;2023-04-03T07:36:53;6.50;99.90
11035;DHT22;5571;48.110;-1.706;2023-04-03T07:39:18;6.50;99.90
11035;DHT22;5571;48.110;-1.706;2023-04-03T07:41:44;6.60;99.90
11035;DHT22;5571;48.110;-1.706;2023-04-03T07:44:10;6.60;99.90
11035;DHT22;5571;48.110;-1.706;2023-04-03T07:46:36;6.60;99.90
11035;DHT22;5571;48.110;-1.706;2023-04-03T07:49:02;6.60;99.90
11035;DHT22;5571;48.110;-1.706;2023-04-03T07:51:28;6.60;99.90
11035;DHT22;5571;48.110;-1.706;2023-04-03T07:53:55;6.60;99.90
11035;DHT22;5571;48.110;-1.706;2023-04-03T07:56:21;6.60;99.90
11035;DHT22;5571;48.110;-1.706;2023-04-03T07:58:46;6.60;99.90
11035;DHT22;5571;48.110;-1.706;2023-04-03T08:01:12;6.70;99.90
11035;DHT22;5571;48.110;-1.706;2023-04-03T08:03:39;6.60;99.90
11035;DHT22;5571;48.110;-1.706;2023-04-03T08:06:06;6.60;99.90
11035;DHT22;5571;48.110;-1.706;2023-04-03T08:08:32;6.50;99.90
11035;DHT22;5571;48.110;-1.706;2023-04-03T08:10:59;6.60;99.90
11035;DHT22;5571;48.110;-1.706;2023-04-03T08:13:26;6.60;99.90
11035;DHT22;5571;48.110;-1.706;2023-04-03T08:15:51;6.70;99.90
11035;DHT22;5571;48.110;-1.706;2023-04-03T08:18:17;6.60;99.90
11035;DHT22;5571;48.110;-1.706;2023-04-03T08:20:44;6.70;99.90
11035;DHT22;5571;48.110;-1.706;2023-04-03T08:23:10;6.80;99.90
11035;DHT22;5571;48.110;-1.706;2023-04-03T08:25:40;6.80;99.90
11035;DHT22;5571;48.110;-1.706;2023-04-03T08:28:07;6.90;99.90
11035;DHT22;5571;48.110;-1.706;2023-04-03T08:30:33;6.90;99.90
11035;DHT22;5571;48.110;-1.706;2023-04-03T08:33:01;7.00;99.90
11035;DHT22;5571;48.110;-1.706;2023-04-03T08:35:27;6.90;99.90
11035;DHT22;5571;48.110;-1.706;2023-04-03T08:37:52;7.00;99.90
11035;DHT22;5571;48.110;-1.706;2023-04-03T08:40:18;7.00;99.90
11035;DHT22;5571;48.110;-1.706;2023-04-03T08:45:48;7.00;99.90
11035;DHT22;5571;48.110;-1.706;2023-04-03T08:48:47;7.00;99.90
11035;DHT22;5571;48.110;-1.706;2023-04-03T08:51:17;6.90;99.90
11035;DHT22;5571;48.110;-1.706;2023-04-03T08:54:04;6.90;99.90
11035;DHT22;5571;48.110;-1.706;2023-04-03T08:56:33;6.90;99.90
11035;DHT22;5571;48.110;-1.706;2023-04-03T08:59:05;6.90;99.90
11035;DHT22;5571;48.110;-1.706;2023-04-03T09:01:36;6.90;99.90
11035;DHT22;5571;48.110;-1.706;2023-04-03T09:04:10;6.70;99.90
11035;DHT22;5571;48.110;-1.706;2023-04-03T09:06:38;6.70;99.90
11035;DHT22;5571;48.110;-1.706;2023-04-03T09:12:27;6.70;99.90
11035;DHT22;5571;48.110;-1.706;2023-04-03T09:15:03;6.70;99.90
11035;DHT22;5571;48.110;-1.706;2023-04-03T09:22:41;6.80;99.90
11035;DHT22;5571;48.110;-1.706;2023-04-03T09:25:32;6.90;99.90
11035;DHT22;5571;48.110;-1.706;2023-04-03T09:28:00;6.90;99.90
11035;DHT22;5571;48.110;-1.706;2023-04-03T09:30:27;7.00;99.90
11035;DHT22;5571;48.110;-1.706;2023-04-03T09:32:55;7.00;99.90
11035;DHT22;5571;48.110;-1.706;2023-04-03T09:35:30;7.00;99.90
11035;DHT22;5571;48.110;-1.706;2023-04-03T09:38:15;7.00;99.90
11035;DHT22;5571;48.110;-1.706;2023-04-03T09:41:07;7.00;99.90
11035;DHT22;5571;48.110;-1.706;2023-04-03T09:43:38;7.00;99.90
11035;DHT22;5571;48.110;-1.706;2023-04-03T09:46:25;7.10;99.90
11035;DHT22;5571;48.110;-1.706;2023-04-03T09:48:58;7.10;99.90
11035;DHT22;5571;48.110;-1.706;2023-04-03T09:51:28;7.20;99.90
11035;DHT22;5571;48.110;-1.706;2023-04-03T09:53:55;7.20;99.90
11035;DHT22;5571;48.110;-1.706;2023-04-03T09:56:26;7.30;99.90
11035;DHT22;5571;48.110;-1.706;2023-04-03T10:06:38;7.30;99.90
11035;DHT22;5571;48.110;-1.706;2023-04-03T10:12:00;7.10;99.90
11035;DHT22;5571;48.110;-1.706;2023-04-03T10:14:30;7.10;99.90
11035;DHT22;5571;48.110;-1.706;2023-04-03T10:17:19;7.20;99.90
11035;DHT22;5571;48.110;-1.706;2023-04-03T10:36:17;7.60;99.90
11035;DHT22;5571;48.110;-1.706;2023-04-03T10:46:33;7.50;99.90
11035;DHT22;5571;48.110;-1.706;2023-04-03T10:49:43;7.50;99.90
11035;DHT22;5571;48.110;-1.706;2023-04-03T10:57:40;7.70;99.90
11035;DHT22;5571;48.110;-1.706;2023-04-03T11:00:25;7.70;99.90
11035;DHT22;5571;48.110;-1.706;2023-04-03T11:02:55;7.80;99.90
11035;DHT22;5571;48.110;-1.706;2023-04-03T11:07:57;7.90;99.90
11035;DHT22;5571;48.110;-1.706;2023-04-03T11:10:45;8.00;99.90
11035;DHT22;5571;48.110;-1.706;2023-04-03T11:13:15;7.90;99.90
11035;DHT22;5571;48.110;-1.706;2023-04-03T11:15:43;8.20;99.90
11035;DHT22;5571;48.110;-1.706;2023-04-03T11:18:27;8.70;99.90
11035;DHT22;5571;48.110;-1.706;2023-04-03T11:21:03;9.20;99.90
11035;DHT22;5571;48.110;-1.706;2023-04-03T11:23:36;9.70;99.90
11035;DHT22;5571;48.110;-1.706;2023-04-03T11:26:11;9.90;99.90
11035;DHT22;5571;48.110;-1.706;2023-04-03T11:28:37;10.10;99.90
11035;DHT22;5571;48.110;-1.706;2023-04-03T11:31:23;10.30;99.90
11035;DHT22;5571;48.110;-1.706;2023-04-03T11:36:46;10.90;99.90
11035;DHT22;5571;48.110;-1.706;2023-04-03T11:39:21;11.10;99.90
11035;DHT22;5571;48.110;-1.706;2023-04-03T11:41:48;11.30;99.90
11035;DHT22;5571;48.110;-1.706;2023-04-03T11:44:33;11.20;99.90
11035;DHT22;5571;48.110;-1.706;2023-04-03T11:47:00;11.40;99.90
11035;DHT22;5571;48.110;-1.706;2023-04-03T12:13:39;12.60;99.90
11035;DHT22;5571;48.110;-1.706;2023-04-03T12:16:06;12.70;99.90
11035;DHT22;5571;48.110;-1.706;2023-04-03T12:21:09;13.00;99.90
11035;DHT22;5571;48.110;-1.706;2023-04-03T12:23:36;13.20;99.90
11035;DHT22;5571;48.110;-1.706;2023-04-03T12:26:24;13.60;99.90
11035;DHT22;5571;48.110;-1.706;2023-04-03T12:28:51;13.60;99.90
11035;DHT22;5571;48.110;-1.706;2023-04-03T12:31:19;13.40;99.90
11035;DHT22;5571;48.110;-1.706;2023-04-03T12:34:12;13.40;99.90
11035;DHT22;5571;48.110;-1.706;2023-04-03T12:36:57;13.50;99.90
11035;DHT22;5571;48.110;-1.706;2023-04-03T12:42:24;13.70;99.90
11035;DHT22;5571;48.110;-1.706;2023-04-03T12:45:02;13.70;99.90
11035;DHT22;5571;48.110;-1.706;2023-04-03T12:47:35;14.00;99.90
11035;DHT22;5571;48.110;-1.706;2023-04-03T12:50:13;14.20;99.90
11035;DHT22;5571;48.110;-1.706;2023-04-03T12:52:55;14.40;99.90
11035;DHT22;5571;48.110;-1.706;2023-04-03T12:55:22;14.70;99.90
11035;DHT22;5571;48.110;-1.706;2023-04-03T12:57:48;14.70;99.90
11035;DHT22;5571;48.110;-1.706;2023-04-03T13:00:30;14.70;99.90
11035;DHT22;5571;48.110;-1.706;2023-04-03T13:02:58;14.20;99.90
11035;DHT22;5571;48.110;-1.706;2023-04-03T13:05:24;14.00;99.90
11035;DHT22;5571;48.110;-1.706;2023-04-03T13:07:58;14.00;99.90
11035;DHT22;5571;48.110;-1.706;2023-04-03T13:10:23;13.90;99.90
11035;DHT22;5571;48.110;-1.706;2023-04-03T13:15:18;13.90;99.90
11035;DHT22;5571;48.110;-1.706;2023-04-03T13:17:45;13.90;99.90
11035;DHT22;5571;48.110;-1.706;2023-04-03T13:20:14;13.80;99.90
11035;DHT22;5571;48.110;-1.706;2023-04-03T13:22:57;14.10;99.90
11035;DHT22;5571;48.110;-1.706;2023-04-03T13:25:26;14.40;99.90
11035;DHT22;5571;48.110;-1.706;2023-04-03T13:27:53;14.80;99.90
11035;DHT22;5571;48.110;-1.706;2023-04-03T13:32:48;15.10;99.90
11035;DHT22;5571;48.110;-1.706;2023-04-03T13:35:38;15.20;99.90
11035;DHT22;5571;48.110;-1.706;2023-04-03T13:40:53;15.50;99.90
11035;DHT22;5571;48.110;-1.706;2023-04-03T13:43:27;15.20;99.90
11035;DHT22;5571;48.110;-1.706;2023-04-03T13:48:23;15.70;99.90
11035;DHT22;5571;48.110;-1.706;2023-04-03T13:51:12;15.40;99.90
11035;DHT22;5571;48.110;-1.706;2023-04-03T13:56:34;15.90;99.90
11035;DHT22;5571;48.110;-1.706;2023-04-03T14:01:46;16.70;99.90
11035;DHT22;5571;48.110;-1.706;2023-04-03T14:06:45;16.30;99.90
11035;DHT22;5571;48.110;-1.706;2023-04-03T14:09:12;16.00;99.90
11035;DHT22;5571;48.110;-1.706;2023-04-03T14:11:38;16.20;99.90
11035;DHT22;5571;48.110;-1.706;2023-04-03T14:14:29;16.40;99.90
11035;DHT22;5571;48.110;-1.706;2023-04-03T14:16:58;16.90;99.90
11035;DHT22;5571;48.110;-1.706;2023-04-03T14:19:35;16.90;99.90
11035;DHT22;5571;48.110;-1.706;2023-04-03T14:22:11;16.80;99.90
11035;DHT22;5571;48.110;-1.706;2023-04-03T14:24:37;17.00;99.90
11035;DHT22;5571;48.110;-1.706;2023-04-03T14:27:11;17.10;99.90
11035;DHT22;5571;48.110;-1.706;2023-04-03T14:29:38;17.10;99.90
11035;DHT22;5571;48.110;-1.706;2023-04-03T14:32:05;16.90;99.90
11035;DHT22;5571;48.110;-1.706;2023-04-03T14:34:31;16.70;99.90
11035;DHT22;5571;48.110;-1.706;2023-04-03T14:36:57;17.00;99.90
11035;DHT22;5571;48.110;-1.706;2023-04-03T14:39:22;16.90;99.90
11035;DHT22;5571;48.110;-1.706;2023-04-03T14:41:48;16.60;99.90
11035;DHT22;5571;48.110;-1.706;2023-04-03T14:44:14;16.60;99.90
11035;DHT22;5571;48.110;-1.706;2023-04-03T14:46:42;16.80;99.90
11035;DHT22;5571;48.110;-1.706;2023-04-03T14:49:35;16.50;99.90
11035;DHT22;5571;48.110;-1.706;2023-04-03T14:51:59;16.40;99.90
11035;DHT22;5571;48.110;-1.706;2023-04-03T14:54:25;16.70;99.90
11035;DHT22;5571;48.110;-1.706;2023-04-03T14:56:53;17.00;99.90
11035;DHT22;5571;48.110;-1.706;2023-04-03T14:59:21;16.90;99.90
11035;DHT22;5571;48.110;-1.706;2023-04-03T15:01:47;16.60;99.90
11035;DHT22;5571;48.110;-1.706;2023-04-03T15:04:17;16.40;99.90
11035;DHT22;5571;48.110;-1.706;2023-04-03T15:06:44;16.40;99.90
11035;DHT22;5571;48.110;-1.706;2023-04-03T15:09:25;16.50;99.90
11035;DHT22;5571;48.110;-1.706;2023-04-03T15:11:53;16.50;99.90
11035;DHT22;5571;48.110;-1.706;2023-04-03T15:14:19;16.50;99.90
11035;DHT22;5571;48.110;-1.706;2023-04-03T15:16:45;16.50;99.90
11035;DHT22;5571;48.110;-1.706;2023-04-03T15:19:11;16.60;99.90
11035;DHT22;5571;48.110;-1.706;2023-04-03T15:21:37;16.60;99.90
11035;DHT22;5571;48.110;-1.706;2023-04-03T15:24:03;16.70;99.90
11035;DHT22;5571;48.110;-1.706;2023-04-03T15:26:29;16.70;99.90
11035;DHT22;5571;48.110;-1.706;2023-04-03T15:28:55;16.80;99.90
11035;DHT22;5571;48.110;-1.706;2023-04-03T15:31:21;16.90;99.90
11035;DHT22;5571;48.110;-1.706;2023-04-03T15:33:46;16.90;99.90
11035;DHT22;5571;48.110;-1.706;2023-04-03T15:36:12;16.80;99.90
11035;DHT22;5571;48.110;-1.706;2023-04-03T15:38:38;16.60;99.90
11035;DHT22;5571;48.110;-1.706;2023-04-03T15:41:04;16.50;99.90
11035;DHT22;5571;48.110;-1.706;2023-04-03T15:43:30;16.10;99.90
11035;DHT22;5571;48.110;-1.706;2023-04-03T15:45:58;16.00;99.90
11035;DHT22;5571;48.110;-1.706;2023-04-03T15:48:25;16.00;99.90
11035;DHT22;5571;48.110;-1.706;2023-04-03T15:50:51;15.90;99.90
11035;DHT22;5571;48.110;-1.706;2023-04-03T15:53:17;16.00;99.90
11035;DHT22;5571;48.110;-1.706;2023-04-03T15:55:43;16.20;99.90
11035;DHT22;5571;48.110;-1.706;2023-04-03T15:58:08;16.20;99.90
11035;DHT22;5571;48.110;-1.706;2023-04-03T16:00:35;16.00;99.80
11035;DHT22;5571;48.110;-1.706;2023-04-03T16:03:10;15.80;99.90
11035;DHT22;5571;48.110;-1.706;2023-04-03T16:05:37;15.80;99.90
11035;DHT22;5571;48.110;-1.706;2023-04-03T16:08:04;15.70;99.90
11035;DHT22;5571;48.110;-1.706;2023-04-03T16:10:30;15.70;99.90
11035;DHT22;5571;48.110;-1.706;2023-04-03T16:12:56;15.70;99.90
11035;DHT22;5571;48.110;-1.706;2023-04-03T16:15:23;15.50;99.90
11035;DHT22;5571;48.110;-1.706;2023-04-03T16:17:49;15.40;99.90
11035;DHT22;5571;48.110;-1.706;2023-04-03T16:20:15;15.40;99.90
11035;DHT22;5571;48.110;-1.706;2023-04-03T16:22:42;15.30;99.90
11035;DHT22;5571;48.110;-1.706;2023-04-03T16:25:08;15.30;99.90
11035;DHT22;5571;48.110;-1.706;2023-04-03T16:27:34;15.30;99.90
11035;DHT22;5571;48.110;-1.706;2023-04-03T16:30:00;15.30;99.90
11035;DHT22;5571;48.110;-1.706;2023-04-03T16:32:29;15.40;99.90
11035;DHT22;5571;48.110;-1.706;2023-04-03T16:34:55;15.30;99.90
11035;DHT22;5571;48.110;-1.706;2023-04-03T16:37:21;15.40;99.90
11035;DHT22;5571;48.110;-1.706;2023-04-03T16:39:47;15.30;99.90
11035;DHT22;5571;48.110;-1.706;2023-04-03T16:42:12;15.30;99.90
11035;DHT22;5571;48.110;-1.706;2023-04-03T16:44:38;15.20;99.90
11035;DHT22;5571;48.110;-1.706;2023-04-03T16:47:05;15.00;99.90
11035;DHT22;5571;48.110;-1.706;2023-04-03T16:49:31;14.90;99.90
11035;DHT22;5571;48.110;-1.706;2023-04-03T16:52:00;14.90;99.90
11035;DHT22;5571;48.110;-1.706;2023-04-03T16:54:26;14.90;99.90
11035;DHT22;5571;48.110;-1.706;2023-04-03T16:56:52;14.80;99.90
11035;DHT22;5571;48.110;-1.706;2023-04-03T16:59:17;14.70;99.90
11035;DHT22;5571;48.110;-1.706;2023-04-03T17:01:43;14.70;99.90
11035;DHT22;5571;48.110;-1.706;2023-04-03T17:04:09;14.60;99.90
11035;DHT22;5571;48.110;-1.706;2023-04-03T17:06:34;14.50;99.90
11035;DHT22;5571;48.110;-1.706;2023-04-03T17:09:00;14.50;99.90
11035;DHT22;5571;48.110;-1.706;2023-04-03T17:11:27;14.40;99.90
11035;DHT22;5571;48.110;-1.706;2023-04-03T17:13:53;14.30;99.90
11035;DHT22;5571;48.110;-1.706;2023-04-03T17:16:20;14.30;99.90
11035;DHT22;5571;48.110;-1.706;2023-04-03T17:18:47;14.20;99.90
11035;DHT22;5571;48.110;-1.706;2023-04-03T17:21:13;14.10;99.90
11035;DHT22;5571;48.110;-1.706;2023-04-03T17:23:41;14.00;99.90
11035;DHT22;5571;48.110;-1.706;2023-04-03T17:26:08;13.90;99.90
11035;DHT22;5571;48.110;-1.706;2023-04-03T17:28:34;13.80;99.90
11035;DHT22;5571;48.110;-1.706;2023-04-03T17:31:00;13.70;99.90
11035;DHT22;5571;48.110;-1.706;2023-04-03T17:33:27;13.70;99.90
11035;DHT22;5571;48.110;-1.706;2023-04-03T17:35:59;13.60;99.90
11035;DHT22;5571;48.110;-1.706;2023-04-03T17:38:27;13.50;99.90